sensor_id;sensor_type;location;lat;lon;timestamp;pressure;altitude;pressure_sealevel;temperature;humidity
34237;BME280;20501;45.956;13.632;2022-07-21T00:00:40;100744.41;;;24.11;45.01
34237;BME280;20501;45.956;13.632;2022-07-21T00:03:05;100730.41;;;24.13;45.54
34237;BME280;20501;45.956;13.632;2022-07-21T00:05:31;100728.16;;;24.21;45.60
34237;BME280;20501;45.956;13.632;2022-07-21T00:07:56;100737.03;;;24.05;46.22
34237;BME280;20501;45.956;13.632;2022-07-21T00:10:24;100737.09;;;23.98;46.50
34237;BME280;20501;45.956;13.632;2022-07-21T00:12:50;100746.06;;;23.87;46.43
34237;BME280;20501;45.956;13.632;2022-07-21T00:15:17;100741.22;;;23.82;44.45
34237;BME280;20501;45.956;13.632;2022-07-21T00:17:43;100739.25;;;23.89;43.86
34237;BME280;20501;45.956;13.632;2022-07-21T00:20:10;100731.22;;;23.88;44.33
34237;BME280;20501;45.956;13.632;2022-07-21T00:22:36;100736.09;;;23.86;44.75
34237;BME280;20501;45.956;13.632;2022-07-21T00:25:03;100738.19;;;23.90;43.84
34237;BME280;20501;45.956;13.632;2022-07-21T00:27:29;100739.50;;;23.88;44.05
34237;BME280;20501;45.956;13.632;2022-07-21T00:29:55;100738.56;;;23.94;43.98
34237;BME280;20501;45.956;13.632;2022-07-21T00:32:20;100739.88;;;23.91;43.96
34237;BME280;20501;45.956;13.632;2022-07-21T00:34:46;100738.19;;;23.90;43.96
34237;BME280;20501;45.956;13.632;2022-07-21T00:37:11;100738.56;;;23.94;44.08
34237;BME280;20501;45.956;13.632;2022-07-21T00:39:37;100742.88;;;23.90;44.43
34237;BME280;20501;45.956;13.632;2022-07-21T00:42:03;100741.19;;;23.89;43.94
34237;BME280;20501;45.956;13.632;2022-07-21T00:44:28;100732.66;;;23.90;44.01
34237;BME280;20501;45.956;13.632;2022-07-21T00:46:54;100727.81;;;23.86;44.02
34237;BME280;20501;45.956;13.632;2022-07-21T00:49:20;100721.69;;;23.84;44.31
34237;BME280;20501;45.956;13.632;2022-07-21T00:51:47;100722.06;;;23.87;44.20
34237;BME280;20501;45.956;13.632;2022-07-21T00:54:13;100721.63;;;23.90;44.06
34237;BME280;20501;45.956;13.632;2022-07-21T00:56:39;100726.72;;;23.93;44.42
34237;BME280;20501;45.956;13.632;2022-07-21T00:59:05;100724.16;;;23.92;44.00
34237;BME280;20501;45.956;13.632;2022-07-21T01:01:30;100720.56;;;23.91;44.17
34237;BME280;20501;45.956;13.632;2022-07-21T01:03:56;100716.34;;;23.95;44.42
34237;BME280;20501;45.956;13.632;2022-07-21T01:06:23;100709.97;;;23.88;44.38
34237;BME280;20501;45.956;13.632;2022-07-21T01:08:50;100706.44;;;23.81;44.75
34237;BME280;20501;45.956;13.632;2022-07-21T01:11:16;100712.41;;;23.78;44.38
34237;BME280;20501;45.956;13.632;2022-07-21T01:13:43;100712.63;;;23.76;44.63
34237;BME280;20501;45.956;13.632;2022-07-21T01:16:11;100709.00;;;23.76;44.77
34237;BME280;20501;45.956;13.632;2022-07-21T01:18:37;100715.63;;;23.75;45.04
34237;BME280;20501;45.956;13.632;2022-07-21T01:23:44;100705.72;;;23.67;46.02
34237;BME280;20501;45.956;13.632;2022-07-21T01:26:10;100710.38;;;23.67;45.50
34237;BME280;20501;45.956;13.632;2022-07-21T01:28:35;100709.53;;;23.66;45.48
34237;BME280;20501;45.956;13.632;2022-07-21T01:31:00;100701.50;;;23.64;45.19
34237;BME280;20501;45.956;13.632;2022-07-21T01:33:26;100704.47;;;23.63;45.52
34237;BME280;20501;45.956;13.632;2022-07-21T01:35:51;100701.25;;;23.66;44.92
34237;BME280;20501;45.956;13.632;2022-07-21T01:38:17;100704.81;;;23.73;46.22
34237;BME280;20501;45.956;13.632;2022-07-21T01:41:01;100695.47;;;23.74;45.59
34237;BME280;20501;45.956;13.632;2022-07-21T01:43:45;100702.91;;;23.74;44.82
34237;BME280;20501;45.956;13.632;2022-07-21T01:46:11;100700.16;;;23.74;45.01
34237;BME280;20501;45.956;13.632;2022-07-21T01:48:46;100697.78;;;23.77;45.03
34237;BME280;20501;45.956;13.632;2022-07-21T01:51:12;100707.50;;;23.80;45.27
34237;BME280;20501;45.956;13.632;2022-07-21T01:53:38;100707.69;;;23.85;46.57
34237;BME280;20501;45.956;13.632;2022-07-21T01:56:04;100704.06;;;23.85;45.79
34237;BME280;20501;45.956;13.632;2022-07-21T01:58:30;100700.69;;;23.83;46.10
34237;BME280;20501;45.956;13.632;2022-07-21T02:00:56;100702.19;;;23.85;48.01
34237;BME280;20501;45.956;13.632;2022-07-21T02:03:22;100697.72;;;23.84;46.11
34237;BME280;20501;45.956;13.632;2022-07-21T02:05:47;100703.44;;;23.83;45.33
34237;BME280;20501;45.956;13.632;2022-07-21T02:08:13;100698.59;;;23.78;45.34
34237;BME280;20501;45.956;13.632;2022-07-21T02:10:38;100702.50;;;23.70;45.63
34237;BME280;20501;45.956;13.632;2022-07-21T02:13:03;100701.50;;;23.64;45.78
34237;BME280;20501;45.956;13.632;2022-07-21T02:15:30;100698.16;;;23.56;46.07
34237;BME280;20501;45.956;13.632;2022-07-21T02:17:56;100700.97;;;23.49;46.20
34237;BME280;20501;45.956;13.632;2022-07-21T02:20:22;100692.69;;;23.49;46.32
34237;BME280;20501;45.956;13.632;2022-07-21T02:22:47;100691.44;;;23.45;46.14
34237;BME280;20501;45.956;13.632;2022-07-21T02:25:13;100688.28;;;23.41;46.22
34237;BME280;20501;45.956;13.632;2022-07-21T02:27:40;100693.81;;;23.41;46.42
34237;BME280;20501;45.956;13.632;2022-07-21T02:30:06;100690.41;;;23.39;46.62
34237;BME280;20501;45.956;13.632;2022-07-21T02:32:31;100688.91;;;23.43;46.54
34237;BME280;20501;45.956;13.632;2022-07-21T02:34:57;100682.09;;;23.46;46.53
34237;BME280;20501;45.956;13.632;2022-07-21T02:37:22;100684.19;;;23.50;46.26
34237;BME280;20501;45.956;13.632;2022-07-21T02:39:48;100696.28;;;23.49;46.08
34237;BME280;20501;45.956;13.632;2022-07-21T02:42:14;100696.75;;;23.46;46.06
34237;BME280;20501;45.956;13.632;2022-07-21T02:44:40;100693.75;;;23.48;46.48
34237;BME280;20501;45.956;13.632;2022-07-21T02:47:05;100691.25;;;23.46;47.20
34237;BME280;20501;45.956;13.632;2022-07-21T02:49:31;100692.47;;;23.50;48.64
34237;BME280;20501;45.956;13.632;2022-07-21T02:51:56;100688.59;;;23.58;46.58
34237;BME280;20501;45.956;13.632;2022-07-21T02:54:22;100689.38;;;23.65;47.16
34237;BME280;20501;45.956;13.632;2022-07-21T02:56:47;100685.78;;;23.65;46.85
34237;BME280;20501;45.956;13.632;2022-07-21T02:59:13;100688.44;;;23.53;46.55
34237;BME280;20501;45.956;13.632;2022-07-21T03:01:38;100690.19;;;23.47;47.21
34237;BME280;20501;45.956;13.632;2022-07-21T03:04:04;100675.81;;;23.39;46.83
34237;BME280;20501;45.956;13.632;2022-07-21T03:06:29;100682.81;;;23.34;46.88
34237;BME280;20501;45.956;13.632;2022-07-21T03:08:54;100676.25;;;23.36;46.76
34237;BME280;20501;45.956;13.632;2022-07-21T03:11:20;100684.69;;;23.41;46.07
34237;BME280;20501;45.956;13.632;2022-07-21T03:13:46;100686.16;;;23.43;46.12
34237;BME280;20501;45.956;13.632;2022-07-21T03:16:11;100688.69;;;23.45;46.42
34237;BME280;20501;45.956;13.632;2022-07-21T03:18:36;100688.63;;;23.52;47.04
34237;BME280;20501;45.956;13.632;2022-07-21T03:21:02;100685.22;;;23.56;47.41
34237;BME280;20501;45.956;13.632;2022-07-21T03:23:28;100690.28;;;23.59;47.82
34237;BME280;20501;45.956;13.632;2022-07-21T03:25:53;100691.13;;;23.60;48.46
34237;BME280;20501;45.956;13.632;2022-07-21T03:28:18;100692.47;;;23.50;47.04
34237;BME280;20501;45.956;13.632;2022-07-21T03:30:44;100694.44;;;23.43;47.46
34237;BME280;20501;45.956;13.632;2022-07-21T03:33:09;100692.50;;;23.44;47.69
34237;BME280;20501;45.956;13.632;2022-07-21T03:35:35;100689.75;;;23.44;47.48
34237;BME280;20501;45.956;13.632;2022-07-21T03:38:04;100685.63;;;23.28;47.62
34237;BME280;20501;45.956;13.632;2022-07-21T03:40:32;100692.25;;;23.20;47.78
34237;BME280;20501;45.956;13.632;2022-07-21T03:43:00;100684.78;;;23.27;47.61
34237;BME280;20501;45.956;13.632;2022-07-21T03:45:26;100694.31;;;23.31;47.82
34237;BME280;20501;45.956;13.632;2022-07-21T03:47:56;100682.47;;;23.24;47.50
34237;BME280;20501;45.956;13.632;2022-07-21T03:50:22;100672.75;;;23.15;47.48
34237;BME280;20501;45.956;13.632;2022-07-21T03:52:47;100683.53;;;23.16;48.60
34237;BME280;20501;45.956;13.632;2022-07-21T03:55:14;100683.34;;;23.18;47.48
34237;BME280;20501;45.956;13.632;2022-07-21T03:57:50;100689.50;;;23.20;47.14
34237;BME280;20501;45.956;13.632;2022-07-21T04:00:18;100688.22;;;23.16;47.24
34237;BME280;20501;45.956;13.632;2022-07-21T04:02:44;100687.81;;;23.12;47.31
34237;BME280;20501;45.956;13.632;2022-07-21T04:05:11;100681.44;;;23.12;47.81
34237;BME280;20501;45.956;13.632;2022-07-21T04:07:42;100690.97;;;23.16;49.50
34237;BME280;20501;45.956;13.632;2022-07-21T04:10:11;100684.78;;;23.27;47.94
34237;BME280;20501;45.956;13.632;2022-07-21T04:12:37;100693.06;;;23.27;47.56
34237;BME280;20501;45.956;13.632;2022-07-21T04:15:04;100696.47;;;23.23;47.97
34237;BME280;20501;45.956;13.632;2022-07-21T04:17:30;100703.06;;;23.15;48.13
34237;BME280;20501;45.956;13.632;2022-07-21T04:19:55;100691.88;;;23.10;48.42
34237;BME280;20501;45.956;13.632;2022-07-21T04:22:20;100704.78;;;23.09;48.28
34237;BME280;20501;45.956;13.632;2022-07-21T04:24:46;100702.25;;;23.08;48.62
34237;BME280;20501;45.956;13.632;2022-07-21T04:27:11;100701.81;;;23.11;48.33
34237;BME280;20501;45.956;13.632;2022-07-21T04:29:37;100696.91;;;23.13;48.67
34237;BME280;20501;45.956;13.632;2022-07-21T04:32:03;100710.88;;;23.18;48.45
34237;BME280;20501;45.956;13.632;2022-07-21T04:34:28;100712.63;;;23.19;48.49
34237;BME280;20501;45.956;13.632;2022-07-21T04:36:54;100706.19;;;23.25;49.05
34237;BME280;20501;45.956;13.632;2022-07-21T04:39:20;100713.38;;;23.33;48.99
34237;BME280;20501;45.956;13.632;2022-07-21T04:41:45;100714.88;;;23.29;48.59
34237;BME280;20501;45.956;13.632;2022-07-21T04:44:10;100712.06;;;23.36;48.79
34237;BME280;20501;45.956;13.632;2022-07-21T04:46:36;100711.06;;;23.30;48.47
34237;BME280;20501;45.956;13.632;2022-07-21T04:49:01;100716.19;;;23.19;48.46
34237;BME280;20501;45.956;13.632;2022-07-21T04:51:27;100715.53;;;23.17;48.84
34237;BME280;20501;45.956;13.632;2022-07-21T04:53:52;100722.56;;;23.20;48.99
34237;BME280;20501;45.956;13.632;2022-07-21T04:56:18;100716.59;;;23.23;49.43
34237;BME280;20501;45.956;13.632;2022-07-21T04:58:43;100724.66;;;23.25;48.44
34237;BME280;20501;45.956;13.632;2022-07-21T05:01:09;100724.84;;;23.30;48.56
34237;BME280;20501;45.956;13.632;2022-07-21T05:03:34;100729.03;;;23.32;48.44
34237;BME280;20501;45.956;13.632;2022-07-21T05:05:59;100716.97;;;23.33;48.51
34237;BME280;20501;45.956;13.632;2022-07-21T05:08:25;100720.97;;;23.38;48.40
34237;BME280;20501;45.956;13.632;2022-07-21T05:10:52;100730.06;;;23.38;48.09
34237;BME280;20501;45.956;13.632;2022-07-21T05:13:19;100726.06;;;23.41;48.50
34237;BME280;20501;45.956;13.632;2022-07-21T05:15:44;100730.91;;;23.45;49.64
34237;BME280;20501;45.956;13.632;2022-07-21T05:18:10;100729.38;;;23.49;48.48
34237;BME280;20501;45.956;13.632;2022-07-21T05:20:35;100735.06;;;23.55;48.32
34237;BME280;20501;45.956;13.632;2022-07-21T05:23:01;100732.94;;;23.57;48.48
34237;BME280;20501;45.956;13.632;2022-07-21T05:25:28;100746.25;;;23.60;48.13
34237;BME280;20501;45.956;13.632;2022-07-21T05:27:54;100742.84;;;23.64;48.92
34237;BME280;20501;45.956;13.632;2022-07-21T05:30:28;100743.03;;;23.70;48.83
34237;BME280;20501;45.956;13.632;2022-07-21T05:32:54;100747.63;;;23.76;48.56
34237;BME280;20501;45.956;13.632;2022-07-21T05:35:20;100750.19;;;23.77;47.79
34237;BME280;20501;45.956;13.632;2022-07-21T05:37:45;100745.06;;;23.81;48.03
34237;BME280;20501;45.956;13.632;2022-07-21T05:40:11;100749.28;;;23.84;48.08
34237;BME280;20501;45.956;13.632;2022-07-21T05:42:37;100758.41;;;23.84;47.73
34237;BME280;20501;45.956;13.632;2022-07-21T05:45:03;100754.78;;;23.84;47.80
34237;BME280;20501;45.956;13.632;2022-07-21T05:47:29;100760.69;;;23.87;48.86
34237;BME280;20501;45.956;13.632;2022-07-21T05:49:58;100753.91;;;23.90;48.51
34237;BME280;20501;45.956;13.632;2022-07-21T05:52:23;100750.47;;;23.94;47.82
34237;BME280;20501;45.956;13.632;2022-07-21T05:54:49;100751.72;;;23.99;47.52
34237;BME280;20501;45.956;13.632;2022-07-21T05:57:15;100751.66;;;24.05;47.72
34237;BME280;20501;45.956;13.632;2022-07-21T05:59:40;100762.88;;;24.10;47.71
34237;BME280;20501;45.956;13.632;2022-07-21T06:02:06;100756.25;;;24.18;47.67
34237;BME280;20501;45.956;13.632;2022-07-21T06:04:31;100750.63;;;24.25;47.16
34237;BME280;20501;45.956;13.632;2022-07-21T06:06:56;100752.75;;;24.30;47.17
34237;BME280;20501;45.956;13.632;2022-07-21T06:09:22;100757.34;;;24.36;46.84
34237;BME280;20501;45.956;13.632;2022-07-21T06:11:47;100762.41;;;24.39;47.45
34237;BME280;20501;45.956;13.632;2022-07-21T06:14:13;100759.59;;;24.46;46.78
34237;BME280;20501;45.956;13.632;2022-07-21T06:16:38;100753.38;;;24.50;46.01
34237;BME280;20501;45.956;13.632;2022-07-21T06:19:07;100748.44;;;24.52;46.05
34237;BME280;20501;45.956;13.632;2022-07-21T06:21:33;100752.00;;;24.60;46.17
34237;BME280;20501;45.956;13.632;2022-07-21T06:23:58;100756.16;;;24.69;46.06
34237;BME280;20501;45.956;13.632;2022-07-21T06:26:24;100757.53;;;24.78;46.06
34237;BME280;20501;45.956;13.632;2022-07-21T06:28:50;100759.78;;;24.88;45.64
34237;BME280;20501;45.956;13.632;2022-07-21T06:31:15;100763.53;;;24.94;46.30
34237;BME280;20501;45.956;13.632;2022-07-21T06:33:41;100760.06;;;24.98;45.98
34237;BME280;20501;45.956;13.632;2022-07-21T06:36:07;100760.44;;;25.02;45.83
34237;BME280;20501;45.956;13.632;2022-07-21T06:38:33;100760.00;;;25.05;45.79
34237;BME280;20501;45.956;13.632;2022-07-21T06:40:58;100752.66;;;25.11;45.94
34237;BME280;20501;45.956;13.632;2022-07-21T06:43:24;100757.13;;;25.12;45.62
34237;BME280;20501;45.956;13.632;2022-07-21T06:45:49;100757.66;;;25.21;45.54
34237;BME280;20501;45.956;13.632;2022-07-21T06:48:16;100748.44;;;25.27;45.54
34237;BME280;20501;45.956;13.632;2022-07-21T06:50:42;100748.56;;;25.32;45.21
34237;BME280;20501;45.956;13.632;2022-07-21T06:53:07;100752.72;;;25.41;45.90
34237;BME280;20501;45.956;13.632;2022-07-21T06:55:33;100754.69;;;25.53;44.72
34237;BME280;20501;45.956;13.632;2022-07-21T06:58:11;100750.75;;;25.60;44.51
34237;BME280;20501;45.956;13.632;2022-07-21T07:00:37;100742.81;;;25.64;43.96
34237;BME280;20501;45.956;13.632;2022-07-21T07:03:03;100748.13;;;25.77;43.58
34237;BME280;20501;45.956;13.632;2022-07-21T07:05:28;100751.97;;;25.76;44.41
34237;BME280;20501;45.956;13.632;2022-07-21T07:07:56;100749.09;;;25.83;43.57
34237;BME280;20501;45.956;13.632;2022-07-21T07:10:21;100758.28;;;25.95;43.61
34237;BME280;20501;45.956;13.632;2022-07-21T07:12:47;100756.81;;;25.93;43.51
34237;BME280;20501;45.956;13.632;2022-07-21T07:15:12;100763.09;;;26.00;43.06
34237;BME280;20501;45.956;13.632;2022-07-21T07:17:38;100763.13;;;26.12;43.47
34237;BME280;20501;45.956;13.632;2022-07-21T07:20:04;100752.06;;;26.24;43.17
34237;BME280;20501;45.956;13.632;2022-07-21T07:22:31;100759.75;;;26.34;43.03
34237;BME280;20501;45.956;13.632;2022-07-21T07:24:57;100747.34;;;26.36;43.13
34237;BME280;20501;45.956;13.632;2022-07-21T07:27:22;100750.47;;;26.52;42.41
34237;BME280;20501;45.956;13.632;2022-07-21T07:29:48;100747.97;;;26.50;43.14
34237;BME280;20501;45.956;13.632;2022-07-21T07:32:13;100738.06;;;26.54;42.87
34237;BME280;20501;45.956;13.632;2022-07-21T07:34:39;100741.31;;;26.63;42.66
34237;BME280;20501;45.956;13.632;2022-07-21T07:37:04;100740.09;;;26.59;42.66
34237;BME280;20501;45.956;13.632;2022-07-21T07:39:30;100735.41;;;26.60;42.40
34237;BME280;20501;45.956;13.632;2022-07-21T07:41:55;100735.06;;;26.56;42.36
34237;BME280;20501;45.956;13.632;2022-07-21T07:44:21;100732.50;;;26.78;42.32
34237;BME280;20501;45.956;13.632;2022-07-21T07:46:47;100735.34;;;26.95;42.06
34237;BME280;20501;45.956;13.632;2022-07-21T07:49:12;100730.63;;;27.08;41.16
34237;BME280;20501;45.956;13.632;2022-07-21T07:51:38;100723.25;;;27.13;41.45
34237;BME280;20501;45.956;13.632;2022-07-21T07:54:03;100727.44;;;27.16;41.20
34237;BME280;20501;45.956;13.632;2022-07-21T07:56:29;100727.31;;;27.11;41.75
34237;BME280;20501;45.956;13.632;2022-07-21T07:58:55;100725.41;;;27.11;41.48
34237;BME280;20501;45.956;13.632;2022-07-21T08:01:20;100725.53;;;27.33;40.11
34237;BME280;20501;45.956;13.632;2022-07-21T08:03:46;100731.00;;;27.57;39.46
34237;BME280;20501;45.956;13.632;2022-07-21T08:06:12;100720.19;;;27.73;38.85
34237;BME280;20501;45.956;13.632;2022-07-21T08:08:38;100722.19;;;27.77;39.43
34237;BME280;20501;45.956;13.632;2022-07-21T08:11:04;100722.53;;;27.81;38.80
34237;BME280;20501;45.956;13.632;2022-07-21T08:13:29;100713.88;;;27.94;39.15
34237;BME280;20501;45.956;13.632;2022-07-21T08:15:55;100709.91;;;28.07;38.86
34237;BME280;20501;45.956;13.632;2022-07-21T08:18:21;100715.31;;;28.14;39.12
34237;BME280;20501;45.956;13.632;2022-07-21T08:20:47;100712.09;;;28.22;37.70
34237;BME280;20501;45.956;13.632;2022-07-21T08:23:14;100701.38;;;28.31;37.74
34237;BME280;20501;45.956;13.632;2022-07-21T08:25:39;100697.38;;;28.44;38.13
34237;BME280;20501;45.956;13.632;2022-07-21T08:28:05;100698.34;;;28.72;36.28
34237;BME280;20501;45.956;13.632;2022-07-21T08:30:31;100699.81;;;28.80;36.54
34237;BME280;20501;45.956;13.632;2022-07-21T08:33:00;100697.09;;;28.85;36.86
34237;BME280;20501;45.956;13.632;2022-07-21T08:35:26;100688.81;;;28.68;37.81
34237;BME280;20501;45.956;13.632;2022-07-21T08:38:01;100691.94;;;28.71;35.85
34237;BME280;20501;45.956;13.632;2022-07-21T08:40:29;100688.81;;;28.90;35.99
34237;BME280;20501;45.956;13.632;2022-07-21T08:42:55;100685.81;;;28.97;35.46
34237;BME280;20501;45.956;13.632;2022-07-21T08:45:21;100681.75;;;29.04;35.30
34237;BME280;20501;45.956;13.632;2022-07-21T08:47:49;100687.81;;;29.01;35.71
34237;BME280;20501;45.956;13.632;2022-07-21T08:50:16;100691.22;;;28.81;35.92
34237;BME280;20501;45.956;13.632;2022-07-21T08:52:41;100685.78;;;28.92;34.40
34237;BME280;20501;45.956;13.632;2022-07-21T08:55:07;100682.09;;;29.36;33.40
34237;BME280;20501;45.956;13.632;2022-07-21T08:57:32;100687.97;;;29.72;32.78
34237;BME280;20501;45.956;13.632;2022-07-21T08:59:58;100686.78;;;29.95;32.56
34237;BME280;20501;45.956;13.632;2022-07-21T09:02:31;100683.66;;;29.91;32.91
34237;BME280;20501;45.956;13.632;2022-07-21T09:04:57;100679.88;;;30.03;32.63
34237;BME280;20501;45.956;13.632;2022-07-21T09:07:23;100674.63;;;30.11;32.55
34237;BME280;20501;45.956;13.632;2022-07-21T09:09:57;100672.78;;;30.27;32.27
34237;BME280;20501;45.956;13.632;2022-07-21T09:12:24;100678.88;;;30.24;31.73
34237;BME280;20501;45.956;13.632;2022-07-21T09:14:50;100676.66;;;30.26;32.07
34237;BME280;20501;45.956;13.632;2022-07-21T09:17:17;100670.94;;;30.01;33.06
34237;BME280;20501;45.956;13.632;2022-07-21T09:19:45;100671.69;;;29.91;33.57
34237;BME280;20501;45.956;13.632;2022-07-21T09:22:14;100674.00;;;29.99;33.02
34237;BME280;20501;45.956;13.632;2022-07-21T09:24:48;100677.78;;;30.25;32.11
34237;BME280;20501;45.956;13.632;2022-07-21T09:27:20;100668.91;;;30.29;32.71
34237;BME280;20501;45.956;13.632;2022-07-21T09:30:00;100661.06;;;30.31;32.31
34237;BME280;20501;45.956;13.632;2022-07-21T09:32:35;100662.81;;;29.94;33.22
34237;BME280;20501;45.956;13.632;2022-07-21T09:35:06;100666.94;;;29.26;34.32
34237;BME280;20501;45.956;13.632;2022-07-21T09:37:33;100663.81;;;29.45;33.09
34237;BME280;20501;45.956;13.632;2022-07-21T09:40:01;100666.28;;;29.41;34.73
34237;BME280;20501;45.956;13.632;2022-07-21T09:42:37;100658.38;;;28.78;37.80
34237;BME280;20501;45.956;13.632;2022-07-21T09:45:05;100660.38;;;28.16;35.77
34237;BME280;20501;45.956;13.632;2022-07-21T09:47:32;100657.22;;;29.29;33.61
34237;BME280;20501;45.956;13.632;2022-07-21T09:49:59;100651.50;;;29.68;33.52
34237;BME280;20501;45.956;13.632;2022-07-21T09:54:52;100648.94;;;27.44;40.84
34237;BME280;20501;45.956;13.632;2022-07-21T09:57:19;100647.78;;;27.57;38.36
34237;BME280;20501;45.956;13.632;2022-07-21T09:59:46;100647.84;;;28.36;35.39
34237;BME280;20501;45.956;13.632;2022-07-21T10:04:47;100643.81;;;26.37;43.02
34237;BME280;20501;45.956;13.632;2022-07-21T10:07:15;100638.44;;;26.07;41.39
34237;BME280;20501;45.956;13.632;2022-07-21T10:09:42;100633.56;;;27.54;38.87
34237;BME280;20501;45.956;13.632;2022-07-21T10:12:08;100643.88;;;28.32;37.04
34237;BME280;20501;45.956;13.632;2022-07-21T10:14:35;100632.66;;;28.21;37.43
34237;BME280;20501;45.956;13.632;2022-07-21T10:17:01;100632.19;;;27.90;36.34
34237;BME280;20501;45.956;13.632;2022-07-21T10:19:37;100635.69;;;28.20;36.26
34237;BME280;20501;45.956;13.632;2022-07-21T10:22:33;100631.69;;;29.32;33.89
34237;BME280;20501;45.956;13.632;2022-07-21T10:25:03;100640.13;;;29.37;32.97
34237;BME280;20501;45.956;13.632;2022-07-21T10:27:29;100642.44;;;29.23;34.97
34237;BME280;20501;45.956;13.632;2022-07-21T10:30:04;100629.88;;;28.88;36.29
34237;BME280;20501;45.956;13.632;2022-07-21T10:32:36;100633.72;;;27.64;39.02
34237;BME280;20501;45.956;13.632;2022-07-21T10:37:50;100640.28;;;29.95;31.55
34237;BME280;20501;45.956;13.632;2022-07-21T10:42:44;100636.75;;;30.69;30.99
34237;BME280;20501;45.956;13.632;2022-07-21T10:45:32;100627.94;;;28.44;33.03
34237;BME280;20501;45.956;13.632;2022-07-21T10:47:59;100630.09;;;29.36;30.18
34237;BME280;20501;45.956;13.632;2022-07-21T10:50:32;100628.47;;;29.83;29.73
34237;BME280;20501;45.956;13.632;2022-07-21T10:52:58;100629.59;;;29.87;31.06
34237;BME280;20501;45.956;13.632;2022-07-21T10:55:26;100621.88;;;28.47;34.58
34237;BME280;20501;45.956;13.632;2022-07-21T11:03:20;100633.00;;;29.24;31.36
34237;BME280;20501;45.956;13.632;2022-07-21T11:06:21;100618.63;;;30.08;30.12
34237;BME280;20501;45.956;13.632;2022-07-21T11:11:28;100623.53;;;30.49;28.69
34237;BME280;20501;45.956;13.632;2022-07-21T11:14:18;100622.00;;;30.84;28.40
34237;BME280;20501;45.956;13.632;2022-07-21T11:21:57;100617.63;;;31.24;28.31
34237;BME280;20501;45.956;13.632;2022-07-21T11:24:24;100605.34;;;31.46;28.60
34237;BME280;20501;45.956;13.632;2022-07-21T11:27:02;100605.34;;;31.51;27.73
34237;BME280;20501;45.956;13.632;2022-07-21T11:29:29;100610.06;;;31.82;28.56
34237;BME280;20501;45.956;13.632;2022-07-21T11:31:55;100610.38;;;31.75;27.33
34237;BME280;20501;45.956;13.632;2022-07-21T11:34:22;100596.97;;;31.61;27.26
34237;BME280;20501;45.956;13.632;2022-07-21T11:36:57;100603.09;;;31.79;27.02
34237;BME280;20501;45.956;13.632;2022-07-21T11:39:23;100596.00;;;32.23;27.04
34237;BME280;20501;45.956;13.632;2022-07-21T11:41:49;100602.44;;;32.29;27.15
34237;BME280;20501;45.956;13.632;2022-07-21T11:44:25;100596.69;;;32.60;26.85
34237;BME280;20501;45.956;13.632;2022-07-21T11:46:59;100600.91;;;32.47;27.42
34237;BME280;20501;45.956;13.632;2022-07-21T11:49:25;100594.41;;;31.96;26.35
34237;BME280;20501;45.956;13.632;2022-07-21T11:52:12;100600.84;;;30.98;31.26
34237;BME280;20501;45.956;13.632;2022-07-21T11:57:12;100591.41;;;31.41;25.86
34237;BME280;20501;45.956;13.632;2022-07-21T11:59:39;100588.03;;;31.13;26.82
34237;BME280;20501;45.956;13.632;2022-07-21T12:02:12;100580.22;;;31.51;26.55
34237;BME280;20501;45.956;13.632;2022-07-21T12:07:24;100582.47;;;31.75;27.77
34237;BME280;20501;45.956;13.632;2022-07-21T12:09:52;100581.50;;;32.10;27.54
34237;BME280;20501;45.956;13.632;2022-07-21T12:12:34;100581.00;;;31.98;27.63
34237;BME280;20501;45.956;13.632;2022-07-21T12:17:38;100575.94;;;32.05;28.65
34237;BME280;20501;45.956;13.632;2022-07-21T12:20:05;100577.63;;;31.96;27.73
34237;BME280;20501;45.956;13.632;2022-07-21T12:22:45;100579.13;;;31.37;28.53
34237;BME280;20501;45.956;13.632;2022-07-21T12:25:17;100573.47;;;30.80;29.14
34237;BME280;20501;45.956;13.632;2022-07-21T12:27:45;100569.63;;;31.22;28.91
34237;BME280;20501;45.956;13.632;2022-07-21T12:30:39;100577.28;;;29.14;34.29
34237;BME280;20501;45.956;13.632;2022-07-21T12:33:06;100564.59;;;28.96;32.52
34237;BME280;20501;45.956;13.632;2022-07-21T12:35:33;100569.56;;;29.54;31.77
34237;BME280;20501;45.956;13.632;2022-07-21T12:38:11;100560.59;;;29.14;34.15
34237;BME280;20501;45.956;13.632;2022-07-21T12:40:46;100567.00;;;30.53;29.87
34237;BME280;20501;45.956;13.632;2022-07-21T12:43:14;100564.53;;;31.86;27.87
34237;BME280;20501;45.956;13.632;2022-07-21T12:48:33;100557.88;;;30.73;30.63
34237;BME280;20501;45.956;13.632;2022-07-21T12:53:48;100550.66;;;30.88;29.37
34237;BME280;20501;45.956;13.632;2022-07-21T12:56:16;100555.66;;;31.32;28.38
34237;BME280;20501;45.956;13.632;2022-07-21T12:58:43;100556.78;;;31.52;28.39
34237;BME280;20501;45.956;13.632;2022-07-21T13:01:09;100556.81;;;31.42;28.27
34237;BME280;20501;45.956;13.632;2022-07-21T13:03:35;100552.59;;;31.39;28.26
34237;BME280;20501;45.956;13.632;2022-07-21T13:06:02;100549.19;;;31.84;28.26
34237;BME280;20501;45.956;13.632;2022-07-21T13:08:28;100547.19;;;32.00;27.73
34237;BME280;20501;45.956;13.632;2022-07-21T13:10:54;100545.50;;;32.04;28.46
34237;BME280;20501;45.956;13.632;2022-07-21T13:13:20;100539.16;;;31.67;28.01
34237;BME280;20501;45.956;13.632;2022-07-21T13:15:45;100541.63;;;31.89;28.05
34237;BME280;20501;45.956;13.632;2022-07-21T13:18:11;100547.13;;;32.15;27.24
34237;BME280;20501;45.956;13.632;2022-07-21T13:20:36;100537.59;;;32.21;27.77